Airfield :
LOGIN :

Register | Disclaimer

   EN    FR    IT 

 










Legend :    VFR   Marginal VFR   IFR   Intensive IFR   Very Intensive IFR
Visi :
Ceiling :
>= 8 km
>= 3000ft
5 to 8 km
1000 to 3000 ft
1500m to 5 km
500 to 1000 ft
800 to 1500m
200 to 500 ft
< 800m
< 200 ft
Symbols :   Thunderstorms  Fog  Heavy snow  Heavy precipitations  Wind > 20 kt
SIGMETs :     Misc.  Thunderstorms  Icing  Turbulence  Mountain Waves  Volcanic Ashes






- Airport Elevation : 600 ft
- IATA code : VIE


LOWW - Vienna Schwechat

CURRENT METAR :
  • 091350Z 34010KT 320V020 CAVOK 23/M02 Q1020 NOSIG

EXPIRED METARs :
  • 091320Z 35010KT 300V030 CAVOK 23/M03 Q1021 NOSIG
  • 091250Z 34008KT 310V030 CAVOK 22/M03 Q1021 NOSIG
  • 091220Z 02009KT 350V050 CAVOK 22/M04 Q1021 NOSIG
  • 091150Z 36008KT 310V030 CAVOK 22/M01 Q1022 NOSIG

TAF TAF LOWW
Valid from the 09 at 12:00 until the 10 at 18:00 UTC


091115Z 0912/1018 VRB03KT CAVOK TX23/0915Z TN08/1004Z
TEMPO 0919/1015 34010KT



MET'MAP, your aeronautical weather chart ! - Copyright ORBIFLY December 2007 - Disclaimer

ORBIFLY MET'MAP TEAM :

Programming & Development : Alexandra Zaïnal
Concept & original design : Baudouin d'Aumeries
Assistance for programming : Marc-Olivier Méhu
Technical & hardware support : Manuel Goepfert

Contact : metmap@orbifly.com




SOURCES & CREDITS :

   NOAA